createdAt,value
2022-12-03T00:00:33.988Z,0.90
2022-12-03T00:03:00.881Z,0.90
2022-12-03T00:05:27.652Z,0.90
2022-12-03T00:07:54.445Z,0.80
2022-12-03T00:10:21.226Z,0.80
2022-12-03T00:12:47.932Z,0.80
2022-12-03T00:15:14.573Z,0.80
2022-12-03T00:17:41.341Z,0.90
2022-12-03T00:20:09.435Z,0.70
2022-12-03T00:22:36.237Z,0.70
2022-12-03T00:25:03.151Z,0.70
2022-12-03T00:27:29.807Z,0.60
2022-12-03T00:29:56.475Z,0.60
2022-12-03T00:32:23.144Z,0.60
2022-12-03T00:34:49.866Z,0.60
2022-12-03T00:37:16.601Z,0.60
2022-12-03T00:39:43.319Z,0.50
2022-12-03T00:42:10.065Z,0.50
2022-12-03T00:44:36.741Z,0.60
2022-12-03T00:47:03.469Z,0.50
2022-12-03T00:49:30.620Z,0.50
2022-12-03T00:51:57.292Z,0.60
2022-12-03T00:54:30.100Z,0.60
2022-12-03T00:56:58.438Z,0.50
2022-12-03T00:59:25.203Z,0.40
2022-12-03T01:01:52.038Z,0.50
2022-12-03T01:04:18.835Z,0.60
2022-12-03T01:06:45.631Z,0.50
2022-12-03T01:09:12.289Z,0.40
2022-12-03T01:11:39.057Z,0.40
2022-12-03T01:14:11.962Z,0.30
2022-12-03T01:16:39.755Z,0.20
2022-12-03T01:19:07.981Z,0.20
2022-12-03T01:21:35.055Z,0.10
2022-12-03T01:24:01.900Z,0.10
2022-12-03T01:26:28.617Z,0.00
2022-12-03T01:28:55.531Z,0.10
2022-12-03T01:31:40.961Z,0.10
2022-12-03T01:34:07.781Z,0.10
2022-12-03T01:36:34.468Z,0.10
2022-12-03T01:39:02.494Z,0.10
2022-12-03T01:41:29.850Z,0.10
2022-12-03T01:43:57.928Z,0.10
2022-12-03T01:46:28.698Z,0.10
2022-12-03T01:48:56.463Z,0.00
2022-12-03T01:51:23.442Z,0.00
2022-12-03T01:53:50.175Z,0.00
2022-12-03T01:56:18.426Z,0.00
2022-12-03T01:58:46.395Z,0.10
2022-12-03T02:01:15.841Z,-0.10
2022-12-03T02:03:43.527Z,-0.20
2022-12-03T02:06:22.771Z,-0.20
2022-12-03T02:08:50.967Z,-0.10
2022-12-03T02:11:31.789Z,-0.20
2022-12-03T02:14:06.180Z,-0.30
2022-12-03T02:16:35.925Z,-0.20
2022-12-03T02:19:02.856Z,-0.30
2022-12-03T02:22:19.344Z,-0.20
2022-12-03T02:25:06.319Z,-0.10
2022-12-03T02:27:33.106Z,-0.10
2022-12-03T02:29:59.814Z,-0.10
2022-12-03T02:32:26.550Z,-0.10
2022-12-03T02:34:53.550Z,-0.10
2022-12-03T02:37:26.171Z,-0.10
2022-12-03T02:39:57.197Z,-0.30
2022-12-03T02:42:36.435Z,-0.30
2022-12-03T02:45:08.086Z,-0.40
2022-12-03T02:47:49.574Z,-0.30
2022-12-03T02:50:20.401Z,-0.30
2022-12-03T02:52:47.987Z,-0.30
2022-12-03T02:55:16.761Z,-0.30
2022-12-03T02:57:46.274Z,-0.40
2022-12-03T03:00:13.580Z,-0.40
2022-12-03T03:02:41.533Z,-0.40
2022-12-03T03:05:11.527Z,-0.30
2022-12-03T03:07:39.721Z,-0.30
2022-12-03T03:10:09.087Z,-0.30
2022-12-03T03:12:39.150Z,-0.30
2022-12-03T03:15:08.068Z,-0.40
2022-12-03T03:17:35.177Z,-0.30
2022-12-03T03:20:03.510Z,-0.20
2022-12-03T03:22:35.643Z,-0.10
2022-12-03T03:25:03.317Z,-0.10
2022-12-03T03:27:30.362Z,-0.20
2022-12-03T03:29:58.915Z,-0.40
2022-12-03T03:32:28.080Z,-0.40
2022-12-03T03:34:56.062Z,-0.40
2022-12-03T03:37:24.409Z,-0.20
2022-12-03T03:39:51.420Z,-0.10
2022-12-03T03:42:18.391Z,-0.20
2022-12-03T03:44:45.199Z,-0.20
2022-12-03T03:47:12.691Z,-0.30
2022-12-03T03:49:39.694Z,-0.20
2022-12-03T03:52:06.632Z,-0.10
2022-12-03T03:54:33.471Z,-0.20
2022-12-03T03:57:00.144Z,-0.30
2022-12-03T03:59:26.929Z,-0.30
2022-12-03T04:01:53.649Z,-0.20
2022-12-03T04:04:23.302Z,-0.20
2022-12-03T04:06:50.273Z,-0.30
2022-12-03T04:09:16.946Z,-0.30
2022-12-03T04:12:02.126Z,-0.40
2022-12-03T04:14:29.011Z,-0.30
2022-12-03T04:16:56.005Z,-0.30
2022-12-03T04:19:22.688Z,-0.20
2022-12-03T04:22:07.995Z,-0.30
2022-12-03T04:24:34.757Z,-0.40
2022-12-03T04:27:20.002Z,-0.40
2022-12-03T04:29:46.688Z,-0.40
2022-12-03T04:32:31.808Z,-0.40
2022-12-03T04:35:17.359Z,-0.50
2022-12-03T04:37:44.027Z,-0.40
2022-12-03T04:40:30.984Z,-0.40
2022-12-03T04:42:57.653Z,-0.40
2022-12-03T04:45:24.327Z,-0.40
2022-12-03T04:47:50.982Z,-0.40
2022-12-03T04:50:17.784Z,-0.40
2022-12-03T04:52:44.478Z,-0.40
2022-12-03T04:55:11.302Z,-0.30
2022-12-03T04:57:37.976Z,-0.30
2022-12-03T05:00:05.882Z,-0.30
2022-12-03T05:02:32.968Z,-0.20
2022-12-03T05:04:59.706Z,-0.20
2022-12-03T05:07:26.437Z,-0.20
2022-12-03T05:09:53.129Z,-0.20
2022-12-03T05:12:19.831Z,-0.30
2022-12-03T05:14:46.562Z,-0.30
2022-12-03T05:17:13.269Z,-0.40
2022-12-03T05:19:58.899Z,-0.40
2022-12-03T05:22:25.588Z,-0.30
2022-12-03T05:24:52.575Z,-0.20
2022-12-03T05:27:23.848Z,-0.20
2022-12-03T05:29:51.196Z,-0.30
2022-12-03T05:32:17.860Z,-0.30
2022-12-03T05:34:44.616Z,-0.30
2022-12-03T05:37:11.287Z,-0.20
2022-12-03T05:39:38.062Z,-0.20
2022-12-03T05:42:23.458Z,-0.10
2022-12-03T05:44:50.161Z,-0.10
2022-12-03T05:47:16.923Z,-0.10
2022-12-03T05:49:43.577Z,-0.20
2022-12-03T05:52:10.490Z,-0.10
2022-12-03T05:54:37.144Z,-0.10
2022-12-03T05:57:03.840Z,-0.10
2022-12-03T05:59:30.574Z,-0.10
2022-12-03T06:01:57.257Z,0.00
2022-12-03T06:04:23.951Z,0.00
2022-12-03T06:06:50.601Z,0.00
2022-12-03T06:09:17.244Z,0.00
2022-12-03T06:11:43.984Z,-0.10
2022-12-03T06:14:10.632Z,-0.20
2022-12-03T06:16:37.352Z,-0.10
2022-12-03T06:19:04.069Z,-0.20
2022-12-03T06:21:30.724Z,-0.20
2022-12-03T06:23:57.409Z,-0.10
2022-12-03T06:26:24.115Z,-0.10
2022-12-03T06:28:50.777Z,-0.20
2022-12-03T06:31:17.468Z,-0.20
2022-12-03T06:33:44.192Z,-0.20
2022-12-03T06:36:10.878Z,-0.20
2022-12-03T06:38:37.541Z,-0.20
2022-12-03T06:41:04.298Z,-0.20
2022-12-03T06:43:31.068Z,-0.10
2022-12-03T06:45:57.846Z,-0.10
2022-12-03T06:48:24.547Z,-0.10
2022-12-03T06:50:51.324Z,-0.10
2022-12-03T06:53:17.988Z,0.00
2022-12-03T06:55:44.642Z,-0.10
2022-12-03T06:58:11.444Z,-0.10
2022-12-03T07:00:38.093Z,-0.10
2022-12-03T07:03:04.883Z,-0.10
2022-12-03T07:05:31.536Z,-0.20
2022-12-03T07:07:58.271Z,-0.10
2022-12-03T07:10:25.056Z,-0.20
2022-12-03T07:12:51.733Z,-0.20
2022-12-03T07:15:18.505Z,-0.10
2022-12-03T07:17:45.255Z,-0.20
2022-12-03T07:20:12.314Z,-0.20
2022-12-03T07:22:38.985Z,-0.20
2022-12-03T07:25:06.513Z,-0.30
2022-12-03T07:27:33.212Z,-0.20
2022-12-03T07:29:59.937Z,-0.20
2022-12-03T07:32:26.613Z,-0.20
2022-12-03T07:34:53.456Z,-0.20
2022-12-03T07:37:23.337Z,-0.20
2022-12-03T07:39:52.320Z,-0.20
2022-12-03T07:42:19.016Z,-0.20
2022-12-03T07:44:45.666Z,-0.20
2022-12-03T07:47:12.356Z,-0.20
2022-12-03T07:49:39.059Z,-0.10
2022-12-03T07:52:07.222Z,-0.10
2022-12-03T07:54:34.157Z,-0.10
2022-12-03T07:57:01.785Z,-0.10
2022-12-03T07:59:29.510Z,0.00
2022-12-03T08:01:56.382Z,0.00
2022-12-03T08:04:23.125Z,-0.10
2022-12-03T08:06:49.957Z,0.00
2022-12-03T08:09:16.699Z,0.00
2022-12-03T08:11:47.031Z,-0.10
2022-12-03T08:14:15.740Z,-0.10
2022-12-03T08:16:44.161Z,-0.10
2022-12-03T08:19:12.808Z,-0.10
2022-12-03T08:21:40.504Z,-0.10
2022-12-03T08:24:18.893Z,-0.10
2022-12-03T08:26:47.016Z,-0.10
2022-12-03T08:29:17.362Z,0.00
2022-12-03T08:31:52.423Z,-0.10
2022-12-03T08:34:24.314Z,-0.10
2022-12-03T08:36:59.257Z,-0.10
2022-12-03T08:39:34.924Z,0.00
2022-12-03T08:42:37.626Z,0.10
2022-12-03T08:45:32.094Z,0.00
2022-12-03T08:48:10.128Z,0.10
2022-12-03T08:50:40.500Z,0.10
2022-12-03T08:53:13.156Z,0.10
2022-12-03T08:55:47.304Z,0.20
2022-12-03T08:58:41.566Z,0.10
2022-12-03T09:01:11.261Z,0.00
2022-12-03T09:03:54.480Z,0.00
2022-12-03T09:06:22.115Z,0.10
2022-12-03T09:08:49.047Z,0.10
2022-12-03T09:11:15.988Z,0.10
2022-12-03T09:13:42.666Z,0.00
2022-12-03T09:16:09.470Z,0.00
2022-12-03T09:18:36.184Z,0.00
2022-12-03T09:21:02.885Z,0.10
2022-12-03T09:23:29.646Z,0.10
2022-12-03T09:25:56.430Z,0.20
2022-12-03T09:28:23.084Z,0.20
2022-12-03T09:30:49.896Z,0.20
2022-12-03T09:33:16.698Z,0.20
2022-12-03T09:35:43.407Z,0.20
2022-12-03T09:38:10.699Z,0.20
2022-12-03T09:40:37.416Z,0.10
2022-12-03T09:43:04.970Z,0.20
2022-12-03T09:45:31.933Z,0.20
2022-12-03T09:48:00.399Z,0.30
2022-12-03T09:50:27.669Z,0.30
2022-12-03T09:52:57.258Z,0.40
2022-12-03T09:55:27.254Z,0.40
2022-12-03T09:57:55.513Z,0.40
2022-12-03T10:00:28.525Z,0.40
2022-12-03T10:02:57.984Z,0.40
2022-12-03T10:05:25.259Z,0.50
2022-12-03T10:07:52.779Z,0.50
2022-12-03T10:10:25.143Z,0.60
2022-12-03T10:12:52.672Z,0.40
2022-12-03T10:15:23.052Z,0.30
2022-12-03T10:17:52.311Z,0.30
2022-12-03T10:20:21.604Z,0.20
2022-12-03T10:22:48.881Z,0.10
2022-12-03T10:25:22.444Z,0.10
2022-12-03T10:27:56.762Z,0.20
2022-12-03T10:30:26.966Z,0.30
2022-12-03T10:32:54.678Z,0.30
2022-12-03T10:35:36.103Z,0.40
2022-12-03T10:38:05.545Z,0.40
2022-12-03T10:40:38.160Z,0.30
2022-12-03T10:43:24.195Z,0.30
2022-12-03T10:46:04.191Z,0.30
2022-12-03T10:48:31.455Z,0.30
2022-12-03T10:51:03.205Z,0.30
2022-12-03T10:53:32.586Z,0.40
2022-12-03T10:56:01.975Z,0.60
2022-12-03T10:58:39.850Z,0.60
2022-12-03T11:01:18.281Z,0.70
2022-12-03T11:03:46.359Z,0.70
2022-12-03T11:06:22.133Z,0.70
2022-12-03T11:08:56.793Z,0.60
2022-12-03T11:11:30.470Z,0.70
2022-12-03T11:14:02.054Z,0.70
2022-12-03T11:16:40.598Z,0.60
2022-12-03T11:19:13.356Z,0.60
2022-12-03T11:22:17.921Z,0.50
2022-12-03T11:24:44.815Z,0.50
2022-12-03T11:27:11.671Z,0.40
2022-12-03T11:30:09.392Z,0.40
2022-12-03T11:32:39.290Z,0.40
2022-12-03T11:35:25.130Z,0.40
2022-12-03T11:37:52.276Z,0.50
2022-12-03T11:40:18.924Z,0.40
2022-12-03T11:43:15.743Z,0.40
2022-12-03T11:45:45.726Z,0.30
2022-12-03T11:48:16.806Z,0.30
2022-12-03T11:50:50.194Z,0.30
2022-12-03T11:53:27.075Z,0.40
2022-12-03T11:56:13.354Z,0.40
2022-12-03T11:58:43.656Z,0.50
2022-12-03T12:01:10.400Z,0.50
2022-12-03T12:03:48.780Z,0.60
2022-12-03T12:06:19.157Z,0.70
2022-12-03T12:08:51.711Z,0.70
2022-12-03T12:11:36.714Z,0.80
2022-12-03T12:14:08.324Z,0.70
2022-12-03T12:17:03.145Z,0.80
2022-12-03T12:19:34.475Z,0.80
2022-12-03T12:22:15.969Z,0.80
2022-12-03T12:24:50.805Z,0.90
2022-12-03T12:27:39.304Z,0.80
2022-12-03T12:30:24.833Z,0.70
2022-12-03T12:33:08.256Z,0.70
2022-12-03T12:35:36.697Z,0.70
2022-12-03T12:38:06.347Z,0.70
2022-12-03T12:40:35.612Z,0.70
2022-12-03T12:43:24.735Z,0.70
2022-12-03T12:45:56.897Z,0.80
2022-12-03T12:48:30.058Z,0.80
2022-12-03T12:51:14.591Z,0.90
2022-12-03T12:53:42.875Z,0.80
2022-12-03T12:56:30.244Z,0.80
2022-12-03T12:59:01.727Z,0.80
2022-12-03T13:01:31.011Z,0.70
2022-12-03T13:03:58.727Z,0.70
2022-12-03T13:06:30.654Z,0.70
2022-12-03T13:08:58.660Z,0.70
2022-12-03T13:11:41.331Z,0.60
2022-12-03T13:14:22.282Z,0.70
2022-12-03T13:16:51.164Z,0.60
2022-12-03T13:19:39.582Z,0.50
2022-12-03T13:22:17.987Z,0.40
2022-12-03T13:24:50.892Z,0.30
2022-12-03T13:27:17.521Z,0.30
2022-12-03T13:29:52.762Z,0.30
2022-12-03T13:32:37.106Z,0.20
2022-12-03T13:35:18.952Z,0.10
2022-12-03T13:37:45.645Z,0.20
2022-12-03T13:40:34.970Z,0.10
2022-12-03T13:43:10.893Z,0.10
2022-12-03T13:45:39.118Z,0.20
2022-12-03T13:48:25.096Z,0.10
2022-12-03T13:50:53.011Z,0.20
2022-12-03T13:53:34.532Z,0.30
2022-12-03T13:56:16.487Z,0.30
2022-12-03T13:58:43.234Z,0.30
2022-12-03T14:01:10.073Z,0.30
2022-12-03T14:03:37.120Z,0.40
2022-12-03T14:06:03.928Z,0.40
2022-12-03T14:08:30.619Z,0.40
2022-12-03T14:11:00.445Z,0.30
2022-12-03T14:13:27.776Z,0.40
2022-12-03T14:15:54.641Z,0.30
2022-12-03T14:18:21.454Z,0.40
2022-12-03T14:20:48.364Z,0.40
2022-12-03T14:23:15.694Z,0.40
2022-12-03T14:25:44.006Z,0.20
2022-12-03T14:28:11.359Z,0.10
2022-12-03T14:30:38.205Z,0.10
2022-12-03T14:33:05.128Z,0.10
2022-12-03T14:35:31.842Z,0.10
2022-12-03T14:37:58.560Z,0.20
2022-12-03T14:40:25.850Z,0.10
2022-12-03T14:42:52.757Z,0.10
2022-12-03T14:45:20.748Z,0.20
2022-12-03T14:47:47.476Z,0.10
2022-12-03T14:50:14.825Z,0.20
2022-12-03T14:52:41.933Z,0.30
2022-12-03T14:55:08.942Z,0.20
2022-12-03T14:57:35.701Z,0.00
2022-12-03T15:00:02.396Z,-0.10
2022-12-03T15:02:30.343Z,-0.10
2022-12-03T15:04:57.537Z,0.00
2022-12-03T15:07:24.287Z,0.00
2022-12-03T15:09:50.971Z,0.00
2022-12-03T15:12:17.670Z,0.10
2022-12-03T15:14:44.461Z,0.10
2022-12-03T15:17:11.264Z,0.10
2022-12-03T15:19:38.086Z,0.10
2022-12-03T15:22:04.800Z,0.20
2022-12-03T15:24:31.584Z,0.20
2022-12-03T15:26:58.283Z,0.10
2022-12-03T15:29:25.284Z,0.10
2022-12-03T15:31:52.037Z,0.00
2022-12-03T15:34:22.392Z,-0.10
2022-12-03T15:36:50.152Z,-0.10
2022-12-03T15:39:16.847Z,0.00
2022-12-03T15:41:43.590Z,0.00
2022-12-03T15:44:10.417Z,0.00
2022-12-03T15:46:37.162Z,0.00
2022-12-03T15:49:04.035Z,0.00
2022-12-03T15:51:30.684Z,0.00
2022-12-03T15:53:57.373Z,0.00
2022-12-03T15:56:24.137Z,0.00
2022-12-03T15:58:50.917Z,0.10
2022-12-03T16:01:18.483Z,0.00
2022-12-03T16:03:45.503Z,0.10
2022-12-03T16:06:12.667Z,0.10
2022-12-03T16:08:39.344Z,0.10
2022-12-03T16:11:06.235Z,0.00
2022-12-03T16:13:32.892Z,0.00
2022-12-03T16:15:59.725Z,0.00
2022-12-03T16:18:26.499Z,-0.10
2022-12-03T16:20:53.144Z,-0.10
2022-12-03T16:23:19.809Z,-0.10
2022-12-03T16:25:46.644Z,-0.10
2022-12-03T16:28:13.348Z,-0.30
2022-12-03T16:30:40.352Z,-0.30
2022-12-03T16:33:07.096Z,-0.30
2022-12-03T16:35:33.814Z,-0.30
2022-12-03T16:38:00.558Z,-0.20
2022-12-03T16:40:27.352Z,-0.20
2022-12-03T16:42:54.052Z,-0.20
2022-12-03T16:45:29.807Z,-0.20
2022-12-03T16:47:56.555Z,-0.20
2022-12-03T16:50:29.467Z,-0.20
2022-12-03T16:52:57.320Z,-0.20
2022-12-03T16:55:23.972Z,-0.30
2022-12-03T16:57:50.692Z,-0.40
2022-12-03T17:00:17.818Z,-0.40
2022-12-03T17:02:44.585Z,-0.40
2022-12-03T17:05:11.458Z,-0.30
2022-12-03T17:07:38.256Z,-0.30
2022-12-03T17:10:05.754Z,-0.30
2022-12-03T17:13:00.819Z,-0.40
2022-12-03T17:15:19.420Z,-0.50
2022-12-03T17:17:46.114Z,-0.50
2022-12-03T17:20:14.538Z,-0.40
2022-12-03T17:22:41.692Z,-0.50
2022-12-03T17:25:09.476Z,-0.50
2022-12-03T17:27:40.812Z,-0.50
2022-12-03T17:30:11.813Z,-0.50
2022-12-03T17:32:38.545Z,-0.50
2022-12-03T17:35:05.548Z,-0.50
2022-12-03T17:37:32.222Z,-0.40
2022-12-03T17:39:58.959Z,-0.40
2022-12-03T17:42:25.792Z,-0.40
2022-12-03T17:44:52.816Z,-0.40
2022-12-03T17:47:19.531Z,-0.40
2022-12-03T17:49:46.259Z,-0.40
2022-12-03T17:52:13.003Z,-0.40
2022-12-03T17:55:08.262Z,-0.30
2022-12-03T17:57:26.326Z,-0.20
2022-12-03T17:59:53.306Z,-0.20
2022-12-03T18:02:20.395Z,-0.20
2022-12-03T18:04:47.090Z,-0.20
2022-12-03T18:07:13.917Z,-0.20
2022-12-03T18:09:40.656Z,-0.20
2022-12-03T18:12:07.390Z,-0.20
2022-12-03T18:14:34.105Z,-0.20
2022-12-03T18:17:01.129Z,-0.20
2022-12-03T18:19:27.947Z,-0.20
2022-12-03T18:21:55.340Z,-0.20
2022-12-03T18:24:22.888Z,-0.20
2022-12-03T18:26:50.512Z,-0.20
2022-12-03T18:29:17.314Z,-0.20
2022-12-03T18:31:44.230Z,-0.20
2022-12-03T18:34:11.024Z,-0.20
2022-12-03T18:36:38.348Z,-0.20
2022-12-03T18:39:09.021Z,-0.20
2022-12-03T18:41:36.508Z,-0.20
2022-12-03T18:44:09.436Z,-0.10
2022-12-03T18:46:53.908Z,-0.10
2022-12-03T18:49:21.207Z,-0.10
2022-12-03T18:51:48.587Z,0.00
2022-12-03T18:54:15.683Z,-0.10
2022-12-03T18:56:42.616Z,-0.10
2022-12-03T18:59:11.051Z,-0.10
2022-12-03T19:01:37.867Z,-0.10
2022-12-03T19:04:04.935Z,-0.10
2022-12-03T19:06:32.406Z,0.00
2022-12-03T19:08:59.210Z,0.00
2022-12-03T19:11:26.036Z,0.00
2022-12-03T19:13:52.880Z,0.00
2022-12-03T19:16:19.843Z,0.00
2022-12-03T19:18:46.723Z,0.00
2022-12-03T19:21:15.530Z,0.00
2022-12-03T19:23:47.340Z,0.10
2022-12-03T19:26:25.804Z,0.10
2022-12-03T19:28:53.843Z,0.10
2022-12-03T19:31:20.984Z,0.10
2022-12-03T19:33:48.154Z,0.10
2022-12-03T19:36:27.380Z,0.10
2022-12-03T19:38:57.397Z,0.10
2022-12-03T19:41:30.443Z,0.10
2022-12-03T19:43:58.229Z,0.10
2022-12-03T19:46:28.787Z,0.10
2022-12-03T19:48:55.805Z,0.10
2022-12-03T19:51:38.242Z,0.00
2022-12-03T19:54:07.107Z,0.00
2022-12-03T19:56:34.178Z,0.00
2022-12-03T19:59:01.102Z,0.00
2022-12-03T20:01:30.726Z,0.10
2022-12-03T20:03:59.388Z,0.10
2022-12-03T20:06:28.686Z,0.10
2022-12-03T20:08:57.426Z,0.00
2022-12-03T20:11:29.569Z,0.00
2022-12-03T20:13:59.118Z,0.00
2022-12-03T20:16:27.252Z,0.00
2022-12-03T20:18:59.708Z,0.00
2022-12-03T20:21:28.611Z,0.00
2022-12-03T20:23:55.308Z,0.00
2022-12-03T20:26:22.693Z,0.10
2022-12-03T20:28:50.055Z,0.10
2022-12-03T20:31:19.251Z,0.10
2022-12-03T20:33:48.487Z,0.10
2022-12-03T20:36:17.372Z,0.10
2022-12-03T20:38:44.422Z,0.10
2022-12-03T20:41:16.632Z,0.00
2022-12-03T20:43:43.306Z,0.10
2022-12-03T20:46:18.752Z,0.00
2022-12-03T20:48:46.143Z,0.00
2022-12-03T20:51:15.934Z,0.10
2022-12-03T20:53:43.602Z,0.10
2022-12-03T20:56:10.857Z,0.10
2022-12-03T20:58:37.540Z,0.10
2022-12-03T21:01:13.898Z,0.10
2022-12-03T21:03:42.339Z,0.10
2022-12-03T21:06:09.057Z,0.10
2022-12-03T21:08:41.687Z,0.10
2022-12-03T21:11:14.783Z,0.10
2022-12-03T21:13:43.435Z,0.10
2022-12-03T21:16:14.186Z,0.10
2022-12-03T21:18:41.913Z,0.10
2022-12-03T21:21:10.116Z,0.10
2022-12-03T21:23:36.775Z,0.10
2022-12-03T21:26:12.683Z,0.10
2022-12-03T21:28:41.079Z,0.10
2022-12-03T21:31:11.073Z,0.10
2022-12-03T21:33:38.232Z,0.10
2022-12-03T21:36:06.063Z,0.00
2022-12-03T21:38:34.116Z,0.10
2022-12-03T21:41:01.212Z,0.10
2022-12-03T21:43:28.005Z,0.00
2022-12-03T21:45:54.777Z,0.00
2022-12-03T21:48:22.219Z,0.00
2022-12-03T21:51:01.843Z,0.00
2022-12-03T21:53:29.259Z,0.00
2022-12-03T21:55:56.282Z,-0.10
2022-12-03T21:58:23.118Z,-0.10
2022-12-03T22:00:50.375Z,0.00
2022-12-03T22:03:17.785Z,0.00
2022-12-03T22:05:44.484Z,0.00
2022-12-03T22:08:11.346Z,-0.10
2022-12-03T22:10:38.139Z,0.00
2022-12-03T22:13:04.866Z,0.10
2022-12-03T22:15:31.543Z,0.10
2022-12-03T22:17:58.213Z,0.00
2022-12-03T22:20:24.877Z,0.10
2022-12-03T22:22:51.520Z,0.10
2022-12-03T22:25:18.203Z,0.10
2022-12-03T22:27:44.889Z,0.00
2022-12-03T22:30:11.814Z,0.00
2022-12-03T22:32:38.547Z,0.10
2022-12-03T22:35:05.643Z,0.10
2022-12-03T22:37:32.879Z,0.10
2022-12-03T22:39:59.630Z,0.10
2022-12-03T22:42:26.374Z,0.10
2022-12-03T22:44:53.016Z,0.10
2022-12-03T22:47:19.713Z,0.20
2022-12-03T22:49:46.403Z,0.20
2022-12-03T22:52:13.069Z,0.20
2022-12-03T22:54:39.756Z,0.20
2022-12-03T22:57:06.420Z,0.10
2022-12-03T22:59:33.180Z,0.10
2022-12-03T23:01:59.830Z,0.10
2022-12-03T23:04:26.554Z,0.10
2022-12-03T23:06:53.199Z,0.20
2022-12-03T23:09:19.948Z,0.20
2022-12-03T23:11:47.006Z,0.10
2022-12-03T23:14:14.059Z,0.10
2022-12-03T23:16:41.214Z,0.10
2022-12-03T23:19:07.988Z,0.20
2022-12-03T23:21:35.914Z,0.20
2022-12-03T23:24:04.373Z,0.20
2022-12-03T23:26:35.710Z,0.20
2022-12-03T23:29:02.397Z,0.20
2022-12-03T23:31:31.619Z,0.20
2022-12-03T23:33:59.832Z,0.20
2022-12-03T23:36:28.954Z,0.20
2022-12-03T23:38:55.918Z,0.20
2022-12-03T23:41:23.863Z,0.20
2022-12-03T23:43:50.628Z,0.20
2022-12-03T23:46:23.130Z,0.10
2022-12-03T23:48:50.897Z,0.00
2022-12-03T23:51:21.009Z,0.00
2022-12-03T23:53:47.892Z,0.00
2022-12-03T23:56:21.816Z,0.00
2022-12-03T23:58:48.803Z,0.00
